createdAt,value
2023-08-20T00:00:22.318Z,4.47
2023-08-20T00:02:52.561Z,4.70
2023-08-20T00:05:19.558Z,4.75
2023-08-20T00:07:46.108Z,5.30
2023-08-20T00:10:12.680Z,4.63
2023-08-20T00:12:39.200Z,4.82
2023-08-20T00:15:06.979Z,4.68
2023-08-20T00:17:34.842Z,4.88
2023-08-20T00:20:02.443Z,4.50
2023-08-20T00:22:29.209Z,4.47
2023-08-20T00:24:56.276Z,4.30
2023-08-20T00:27:23.044Z,4.05
2023-08-20T00:29:49.642Z,4.65
2023-08-20T00:32:16.639Z,5.07
2023-08-20T00:34:43.341Z,3.25
2023-08-20T00:37:09.875Z,4.50
2023-08-20T00:39:36.436Z,4.90
2023-08-20T00:42:03.557Z,4.25
2023-08-20T00:44:30.087Z,4.03
2023-08-20T00:46:56.901Z,4.28
2023-08-20T00:49:23.985Z,3.85
2023-08-20T00:51:51.827Z,4.80
2023-08-20T00:54:18.833Z,4.45
2023-08-20T00:56:46.018Z,4.40
2023-08-20T00:59:12.728Z,4.72
2023-08-20T01:01:39.295Z,4.28
2023-08-20T01:04:06.137Z,3.75
2023-08-20T01:06:56.446Z,4.40
2023-08-20T01:09:44.404Z,4.68
2023-08-20T01:12:11.315Z,4.15
2023-08-20T01:14:37.848Z,4.47
2023-08-20T01:17:04.444Z,4.18
2023-08-20T01:19:30.989Z,4.13
2023-08-20T01:22:16.453Z,4.30
2023-08-20T01:25:11.004Z,4.18
2023-08-20T01:27:51.370Z,3.88
2023-08-20T01:30:20.912Z,3.80
2023-08-20T01:32:49.456Z,4.18
2023-08-20T01:35:17.901Z,4.07
2023-08-20T01:37:45.024Z,4.28
2023-08-20T01:40:12.215Z,4.13
2023-08-20T01:42:39.432Z,4.43
2023-08-20T01:45:07.204Z,4.18
2023-08-20T01:47:34.824Z,4.07
2023-08-20T01:50:03.249Z,3.75
2023-08-20T01:52:31.735Z,3.67
2023-08-20T01:54:59.066Z,4.00
2023-08-20T01:57:25.569Z,4.38
2023-08-20T01:59:52.124Z,4.15
2023-08-20T02:02:18.647Z,4.05
2023-08-20T02:04:45.436Z,3.97
2023-08-20T02:07:11.989Z,3.75
2023-08-20T02:09:38.480Z,4.07
2023-08-20T02:12:05.460Z,3.90
2023-08-20T02:14:35.670Z,4.38
2023-08-20T02:17:03.751Z,3.50
2023-08-20T02:19:30.343Z,3.60
2023-08-20T02:21:56.937Z,4.13
2023-08-20T02:24:23.466Z,3.70
2023-08-20T02:26:50.124Z,3.90
2023-08-20T02:29:16.670Z,3.78
2023-08-20T02:31:43.260Z,3.88
2023-08-20T02:34:09.856Z,3.78
2023-08-20T02:36:36.365Z,4.10
2023-08-20T02:39:04.943Z,4.00
2023-08-20T02:41:31.453Z,3.08
2023-08-20T02:43:57.963Z,3.95
2023-08-20T02:46:24.620Z,4.13
2023-08-20T02:48:51.247Z,4.50
2023-08-20T02:51:17.783Z,4.25
2023-08-20T02:53:44.496Z,4.03
2023-08-20T02:56:11.318Z,3.83
2023-08-20T02:58:37.879Z,4.40
2023-08-20T03:01:04.582Z,3.95
2023-08-20T03:03:31.089Z,3.97
2023-08-20T03:05:57.721Z,4.82
2023-08-20T03:08:24.593Z,4.43
2023-08-20T03:10:51.210Z,4.38
2023-08-20T03:13:17.713Z,4.13
2023-08-20T03:15:44.287Z,4.30
2023-08-20T03:18:11.045Z,4.53
2023-08-20T03:20:37.595Z,4.65
2023-08-20T03:23:04.317Z,4.72
2023-08-20T03:25:30.834Z,5.10
2023-08-20T03:27:57.475Z,4.70
2023-08-20T03:30:24.113Z,5.28
2023-08-20T03:32:50.703Z,5.07
2023-08-20T03:35:17.258Z,4.72
2023-08-20T03:37:43.858Z,4.63
2023-08-20T03:40:11.000Z,4.53
2023-08-20T03:42:37.595Z,4.38
2023-08-20T03:45:05.237Z,4.95
2023-08-20T03:47:31.777Z,4.78
2023-08-20T03:49:58.319Z,4.57
2023-08-20T03:52:24.934Z,4.68
2023-08-20T03:54:51.873Z,5.10
2023-08-20T03:57:18.523Z,5.03
2023-08-20T03:59:46.450Z,4.55
2023-08-20T04:02:13.012Z,4.60
2023-08-20T04:04:39.688Z,4.97
2023-08-20T04:07:06.236Z,5.53
2023-08-20T04:09:34.786Z,4.85
2023-08-20T04:12:01.285Z,5.38
2023-08-20T04:14:27.905Z,4.63
2023-08-20T04:16:54.367Z,4.90
2023-08-20T04:19:21.031Z,4.90
2023-08-20T04:21:47.680Z,4.45
2023-08-20T04:24:14.221Z,4.70
2023-08-20T04:26:40.781Z,4.72
2023-08-20T04:29:07.556Z,4.40
2023-08-20T04:31:34.123Z,5.10
2023-08-20T04:34:00.700Z,5.05
2023-08-20T04:36:27.249Z,4.13
2023-08-20T04:38:53.812Z,4.70
2023-08-20T04:41:20.485Z,4.22
2023-08-20T04:43:46.998Z,4.63
2023-08-20T04:46:13.715Z,3.78
2023-08-20T04:48:40.258Z,4.65
2023-08-20T04:51:07.870Z,4.43
2023-08-20T04:53:34.382Z,3.92
2023-08-20T04:56:00.902Z,4.30
2023-08-20T04:58:27.433Z,3.88
2023-08-20T05:00:54.226Z,4.45
2023-08-20T05:03:20.988Z,4.10
2023-08-20T05:05:51.771Z,3.72
2023-08-20T05:08:18.545Z,4.10
2023-08-20T05:10:45.067Z,4.57
2023-08-20T05:13:11.975Z,4.18
2023-08-20T05:15:38.543Z,3.75
2023-08-20T05:18:05.269Z,4.25
2023-08-20T05:20:31.828Z,3.83
2023-08-20T05:22:58.350Z,4.25
2023-08-20T05:25:25.066Z,4.18
2023-08-20T05:27:51.602Z,4.28
2023-08-20T05:30:18.248Z,4.15
2023-08-20T05:32:45.312Z,4.03
2023-08-20T05:35:11.802Z,4.13
2023-08-20T05:37:38.594Z,4.38
2023-08-20T05:40:05.710Z,4.45
2023-08-20T05:42:32.237Z,4.65
2023-08-20T05:44:58.800Z,4.53
2023-08-20T05:47:25.380Z,4.65
2023-08-20T05:49:51.883Z,4.38
2023-08-20T05:52:18.458Z,4.75
2023-08-20T05:54:45.002Z,4.60
2023-08-20T05:57:11.543Z,4.45
2023-08-20T05:59:38.085Z,4.75
2023-08-20T06:02:04.800Z,4.53
2023-08-20T06:04:31.882Z,4.40
2023-08-20T06:06:58.471Z,3.80
2023-08-20T06:09:25.032Z,4.35
2023-08-20T06:11:52.584Z,4.90
2023-08-20T06:14:19.175Z,4.40
2023-08-20T06:16:45.862Z,4.72
2023-08-20T06:19:15.210Z,4.60
2023-08-20T06:21:41.805Z,3.30
2023-08-20T06:24:08.651Z,4.32
2023-08-20T06:26:35.159Z,4.30
2023-08-20T06:29:01.698Z,4.10
2023-08-20T06:31:28.369Z,4.10
2023-08-20T06:33:55.013Z,4.15
2023-08-20T06:36:21.527Z,4.63
2023-08-20T06:38:48.162Z,3.85
2023-08-20T06:41:14.722Z,3.42
2023-08-20T06:43:41.256Z,3.90
2023-08-20T06:46:08.026Z,3.35
2023-08-20T06:48:34.787Z,3.70
2023-08-20T06:51:10.178Z,3.03
2023-08-20T06:53:36.669Z,3.00
2023-08-20T06:56:03.619Z,2.90
2023-08-20T06:58:30.885Z,2.60
2023-08-20T07:00:57.429Z,2.50
2023-08-20T07:03:23.958Z,2.65
2023-08-20T07:05:50.556Z,2.80
2023-08-20T07:08:17.086Z,2.58
2023-08-20T07:10:43.609Z,2.40
2023-08-20T07:13:10.137Z,2.25
2023-08-20T07:15:36.645Z,2.60
2023-08-20T07:18:03.312Z,2.85
2023-08-20T07:20:30.065Z,2.75
2023-08-20T07:22:57.845Z,2.58
2023-08-20T07:25:25.075Z,2.50
2023-08-20T07:27:52.096Z,2.20
2023-08-20T07:30:19.000Z,2.15
2023-08-20T07:32:45.514Z,2.00
2023-08-20T07:35:12.337Z,2.60
2023-08-20T07:37:39.005Z,1.85
2023-08-20T07:40:06.329Z,1.00
2023-08-20T07:42:32.967Z,1.90
2023-08-20T07:44:59.546Z,1.88
2023-08-20T07:47:26.100Z,2.35
2023-08-20T07:49:52.636Z,2.00
2023-08-20T07:52:19.118Z,1.88
2023-08-20T07:54:45.852Z,1.70
2023-08-20T07:57:12.406Z,1.63
2023-08-20T07:59:39.352Z,1.75
2023-08-20T08:02:06.509Z,1.55
2023-08-20T08:04:33.058Z,1.70
2023-08-20T08:06:59.518Z,1.88
2023-08-20T08:09:32.354Z,1.52
2023-08-20T08:11:59.978Z,1.40
2023-08-20T08:14:27.014Z,1.52
2023-08-20T08:16:53.813Z,1.77
2023-08-20T08:19:21.208Z,1.77
2023-08-20T08:21:48.460Z,1.90
2023-08-20T08:24:15.602Z,1.25
2023-08-20T08:26:43.004Z,1.17
2023-08-20T08:29:10.638Z,1.08
2023-08-20T08:31:37.244Z,1.20
2023-08-20T08:34:06.701Z,1.27
2023-08-20T08:36:33.257Z,1.35
2023-08-20T08:38:59.836Z,1.35
2023-08-20T08:41:27.177Z,1.13
2023-08-20T08:43:56.328Z,1.27
2023-08-20T08:46:25.313Z,1.10
2023-08-20T08:48:53.255Z,1.10
2023-08-20T08:51:20.017Z,1.20
2023-08-20T08:53:47.880Z,1.00
2023-08-20T08:56:14.481Z,0.93
2023-08-20T08:58:41.353Z,1.00
2023-08-20T09:01:08.259Z,1.10
2023-08-20T09:03:34.956Z,1.08
2023-08-20T09:06:04.305Z,0.82
2023-08-20T09:08:32.387Z,1.15
2023-08-20T09:13:37.186Z,0.93
2023-08-20T09:16:11.717Z,1.10
2023-08-20T09:18:47.725Z,0.63
2023-08-20T09:21:14.946Z,0.88
2023-08-20T09:23:41.566Z,0.60
2023-08-20T09:26:09.183Z,0.90
2023-08-20T09:28:46.811Z,0.98
2023-08-20T09:31:15.192Z,0.90
2023-08-20T09:33:55.247Z,1.13
2023-08-20T09:36:32.319Z,1.05
2023-08-20T09:38:58.831Z,1.08
2023-08-20T09:41:26.517Z,0.90
2023-08-20T09:44:05.486Z,0.90
2023-08-20T09:46:33.966Z,0.93
2023-08-20T09:49:00.957Z,0.70
2023-08-20T09:51:29.767Z,0.90
2023-08-20T09:54:22.659Z,0.80
2023-08-20T09:56:59.818Z,0.95
2023-08-20T09:59:27.869Z,0.68
2023-08-20T10:01:55.676Z,0.70
2023-08-20T10:04:22.482Z,0.70
2023-08-20T10:06:49.410Z,0.90
2023-08-20T10:09:16.592Z,0.98
2023-08-20T10:11:43.201Z,0.90
2023-08-20T10:14:09.928Z,0.63
2023-08-20T10:16:36.748Z,0.82
2023-08-20T10:19:06.638Z,0.60
2023-08-20T10:21:33.758Z,0.88
2023-08-20T10:24:09.977Z,0.80
2023-08-20T10:26:37.182Z,1.00
2023-08-20T10:29:43.289Z,0.52
2023-08-20T10:32:11.718Z,0.80
2023-08-20T10:34:41.159Z,0.82
2023-08-20T10:37:14.365Z,0.90
2023-08-20T10:39:43.481Z,0.80
2023-08-20T10:42:16.606Z,0.70
2023-08-20T10:45:06.187Z,0.82
2023-08-20T10:47:59.035Z,0.70
2023-08-20T10:50:30.676Z,1.00
2023-08-20T10:52:57.265Z,0.80
2023-08-20T10:55:24.964Z,0.68
2023-08-20T10:58:00.488Z,0.85
2023-08-20T11:00:27.452Z,0.85
2023-08-20T11:02:54.218Z,1.00
2023-08-20T11:05:22.608Z,0.80
2023-08-20T11:07:50.043Z,1.10
2023-08-20T11:10:17.538Z,0.70
2023-08-20T11:12:47.822Z,1.05
2023-08-20T11:15:14.508Z,0.90
2023-08-20T11:17:48.403Z,1.25
2023-08-20T11:20:17.840Z,0.70
2023-08-20T11:22:44.484Z,1.00
2023-08-20T11:25:14.352Z,0.90
2023-08-20T11:27:44.794Z,0.95
2023-08-20T11:30:15.410Z,0.93
2023-08-20T11:32:44.021Z,1.25
2023-08-20T11:35:11.060Z,0.80
2023-08-20T11:37:37.832Z,1.08
2023-08-20T11:40:08.821Z,0.50
2023-08-20T11:42:35.524Z,0.75
2023-08-20T11:45:02.107Z,0.95
2023-08-20T11:47:28.961Z,1.00
2023-08-20T11:50:09.174Z,1.02
2023-08-20T11:52:37.450Z,0.80
2023-08-20T11:55:04.783Z,0.70
2023-08-20T11:57:31.473Z,0.98
2023-08-20T12:00:05.611Z,0.90
2023-08-20T12:02:39.989Z,0.82
2023-08-20T12:05:07.615Z,1.00
2023-08-20T12:07:34.692Z,1.00
2023-08-20T12:10:22.530Z,0.90
2023-08-20T12:12:49.928Z,0.90
2023-08-20T12:15:16.559Z,1.17
2023-08-20T12:17:43.166Z,0.70
2023-08-20T12:20:13.797Z,0.50
2023-08-20T12:22:40.690Z,1.00
2023-08-20T12:25:07.700Z,1.20
2023-08-20T12:27:35.704Z,1.02
2023-08-20T12:32:29.060Z,0.98
2023-08-20T12:34:55.696Z,0.93
2023-08-20T12:37:22.246Z,1.02
2023-08-20T12:39:50.073Z,0.90
2023-08-20T12:42:16.652Z,1.08
2023-08-20T12:44:43.221Z,0.90
2023-08-20T12:47:09.984Z,0.77
2023-08-20T12:49:36.577Z,0.90
2023-08-20T12:52:04.174Z,1.00
2023-08-20T12:54:30.777Z,1.10
2023-08-20T12:56:57.580Z,0.90
2023-08-20T12:59:26.929Z,0.80
2023-08-20T13:01:53.925Z,0.70
2023-08-20T13:04:20.790Z,1.02
2023-08-20T13:06:48.449Z,0.95
2023-08-20T13:09:16.483Z,1.08
2023-08-20T13:11:45.669Z,1.27
2023-08-20T13:14:12.581Z,1.02
2023-08-20T13:16:39.462Z,1.20
2023-08-20T13:19:06.641Z,0.98
2023-08-20T13:21:33.158Z,1.08
2023-08-20T13:23:59.661Z,1.25
2023-08-20T13:26:26.233Z,1.02
2023-08-20T13:28:52.824Z,1.20
2023-08-20T13:31:19.533Z,0.90
2023-08-20T13:33:46.253Z,0.90
2023-08-20T13:36:12.805Z,0.90
2023-08-20T13:38:39.374Z,0.98
2023-08-20T13:41:06.024Z,1.00
2023-08-20T13:43:32.627Z,0.90
2023-08-20T13:45:59.188Z,0.95
2023-08-20T13:48:25.772Z,1.08
2023-08-20T13:50:52.405Z,0.60
2023-08-20T13:53:19.062Z,0.82
2023-08-20T13:55:45.880Z,0.93
2023-08-20T13:58:12.421Z,1.00
2023-08-20T14:00:39.598Z,1.10
2023-08-20T14:03:06.187Z,1.20
2023-08-20T14:05:33.246Z,0.90
2023-08-20T14:07:59.805Z,0.70
2023-08-20T14:10:26.359Z,0.90
2023-08-20T14:12:53.580Z,0.93
2023-08-20T14:15:20.063Z,0.60
2023-08-20T14:17:46.605Z,1.25
2023-08-20T14:20:14.772Z,1.00
2023-08-20T14:25:08.291Z,0.80
2023-08-20T14:27:34.997Z,1.10
2023-08-20T14:30:01.506Z,1.08
2023-08-20T14:32:28.022Z,0.90
2023-08-20T14:34:54.566Z,0.77
2023-08-20T14:37:21.589Z,1.20
2023-08-20T14:39:48.232Z,1.30
2023-08-20T14:42:14.747Z,0.82
2023-08-20T14:44:41.301Z,2.55
2023-08-20T14:47:07.973Z,1.00
2023-08-20T14:49:34.594Z,1.10
2023-08-20T14:52:13.766Z,0.95
2023-08-20T14:54:44.300Z,0.93
2023-08-20T14:57:10.868Z,1.35
2023-08-20T14:59:37.344Z,1.10
2023-08-20T15:02:03.924Z,3.83
2023-08-20T15:04:30.508Z,4.47
2023-08-20T15:06:57.019Z,5.40
2023-08-20T15:09:23.601Z,1.20
2023-08-20T15:11:50.170Z,1.90
2023-08-20T15:14:16.776Z,2.30
2023-08-20T15:16:43.647Z,1.55
2023-08-20T15:19:10.279Z,1.10
2023-08-20T15:21:36.859Z,0.95
2023-08-20T15:24:05.089Z,0.90
2023-08-20T15:29:01.511Z,1.20
2023-08-20T15:31:29.835Z,1.30
2023-08-20T15:33:56.564Z,1.85
2023-08-20T15:36:23.161Z,1.25
2023-08-20T15:38:49.687Z,1.08
2023-08-20T15:41:16.217Z,1.08
2023-08-20T15:43:42.860Z,1.38
2023-08-20T15:46:09.437Z,0.90
2023-08-20T15:48:36.076Z,0.80
2023-08-20T15:51:02.746Z,0.90
2023-08-20T15:53:29.267Z,1.00
2023-08-20T15:55:55.801Z,1.05
2023-08-20T15:58:22.580Z,1.25
2023-08-20T16:00:49.211Z,1.13
2023-08-20T16:03:15.831Z,1.05
2023-08-20T16:05:42.998Z,0.90
2023-08-20T16:08:09.965Z,1.20
2023-08-20T16:10:36.611Z,1.23
2023-08-20T16:13:03.931Z,1.08
2023-08-20T16:15:30.604Z,1.30
2023-08-20T16:17:57.390Z,1.10
2023-08-20T16:20:24.562Z,0.98
2023-08-20T16:22:51.121Z,0.85
2023-08-20T16:25:17.650Z,0.93
2023-08-20T16:27:44.385Z,1.33
2023-08-20T16:30:12.616Z,1.17
2023-08-20T16:32:39.528Z,1.17
2023-08-20T16:35:06.871Z,1.40
2023-08-20T16:37:33.338Z,1.20
2023-08-20T16:39:59.880Z,1.20
2023-08-20T16:42:26.531Z,1.25
2023-08-20T16:44:53.146Z,1.10
2023-08-20T16:47:19.697Z,1.33
2023-08-20T16:49:46.449Z,1.38
2023-08-20T16:52:12.942Z,1.20
2023-08-20T16:54:40.347Z,1.40
2023-08-20T16:57:06.909Z,1.17
2023-08-20T16:59:33.413Z,1.15
2023-08-20T17:01:59.936Z,0.98
2023-08-20T17:04:27.352Z,1.00
2023-08-20T17:06:54.208Z,1.10
2023-08-20T17:09:20.871Z,1.10
2023-08-20T17:11:47.436Z,1.15
2023-08-20T17:14:14.436Z,1.20
2023-08-20T17:16:41.764Z,0.95
2023-08-20T17:19:08.509Z,0.90
2023-08-20T17:21:35.054Z,0.95
2023-08-20T17:24:02.662Z,1.45
2023-08-20T17:26:29.467Z,1.02
2023-08-20T17:28:56.005Z,0.98
2023-08-20T17:31:22.685Z,0.90
2023-08-20T17:33:49.239Z,0.95
2023-08-20T17:36:15.841Z,1.05
2023-08-20T17:38:42.512Z,0.90
2023-08-20T17:41:08.996Z,1.33
2023-08-20T17:43:35.501Z,1.38
2023-08-20T17:46:02.096Z,1.48
2023-08-20T17:48:29.412Z,1.38
2023-08-20T17:50:56.297Z,1.17
2023-08-20T17:53:29.194Z,1.20
2023-08-20T17:55:58.003Z,1.45
2023-08-20T17:58:26.669Z,1.52
2023-08-20T18:00:53.364Z,1.20
2023-08-20T18:03:20.594Z,1.55
2023-08-20T18:05:47.340Z,0.82
2023-08-20T18:08:14.381Z,0.90
2023-08-20T18:10:41.013Z,1.40
2023-08-20T18:13:09.132Z,1.10
2023-08-20T18:15:36.173Z,1.15
2023-08-20T18:18:03.069Z,1.05
2023-08-20T18:20:29.773Z,1.20
2023-08-20T18:22:56.324Z,1.20
2023-08-20T18:25:22.893Z,1.02
2023-08-20T18:27:49.520Z,1.08
2023-08-20T18:30:16.307Z,1.00
2023-08-20T18:32:43.052Z,1.27
2023-08-20T18:35:10.333Z,1.00
2023-08-20T18:37:36.877Z,1.23
2023-08-20T18:40:05.165Z,0.75
2023-08-20T18:42:34.210Z,1.08
2023-08-20T18:45:01.888Z,0.90
2023-08-20T18:47:28.652Z,1.15
2023-08-20T18:49:55.299Z,1.17
2023-08-20T18:52:21.821Z,1.42
2023-08-20T18:54:48.479Z,1.38
2023-08-20T18:57:15.040Z,1.30
2023-08-20T18:59:41.776Z,1.73
2023-08-20T19:02:08.366Z,1.65
2023-08-20T19:04:34.932Z,1.30
2023-08-20T19:07:02.235Z,0.88
2023-08-20T19:09:29.762Z,1.50
2023-08-20T19:11:59.973Z,1.08
2023-08-20T19:14:26.607Z,1.17
2023-08-20T19:16:53.170Z,1.42
2023-08-20T19:19:19.743Z,1.27
2023-08-20T19:21:46.289Z,1.67
2023-08-20T19:24:12.941Z,1.27
2023-08-20T19:26:39.582Z,1.30
2023-08-20T19:29:06.095Z,1.48
2023-08-20T19:31:32.821Z,1.38
2023-08-20T19:33:59.349Z,1.42
2023-08-20T19:36:25.938Z,1.05
2023-08-20T19:38:52.478Z,1.00
2023-08-20T19:41:19.039Z,1.33
2023-08-20T19:43:45.745Z,1.30
2023-08-20T19:46:14.893Z,1.70
2023-08-20T19:48:41.658Z,1.60
2023-08-20T19:51:08.280Z,1.15
2023-08-20T19:53:34.847Z,1.20
2023-08-20T19:56:01.429Z,1.15
2023-08-20T19:58:28.104Z,1.00
2023-08-20T20:00:54.753Z,1.20
2023-08-20T20:03:21.392Z,1.30
2023-08-20T20:05:47.916Z,1.15
2023-08-20T20:08:14.469Z,1.35
2023-08-20T20:10:41.348Z,1.42
2023-08-20T20:13:07.867Z,1.40
2023-08-20T20:15:34.483Z,1.30
2023-08-20T20:18:01.096Z,1.15
2023-08-20T20:20:28.274Z,1.30
2023-08-20T20:22:54.923Z,1.40
2023-08-20T20:25:22.983Z,1.15
2023-08-20T20:27:51.302Z,1.20
2023-08-20T20:30:17.827Z,1.00
2023-08-20T20:32:45.745Z,1.00
2023-08-20T20:35:12.495Z,1.10
2023-08-20T20:37:39.772Z,1.25
2023-08-20T20:40:09.955Z,1.30
2023-08-20T20:42:37.825Z,1.30
2023-08-20T20:45:06.849Z,1.30
2023-08-20T20:47:33.680Z,1.40
2023-08-20T20:50:00.485Z,1.42
2023-08-20T20:52:27.210Z,1.30
2023-08-20T20:54:53.784Z,1.13
2023-08-20T20:57:21.126Z,1.13
2023-08-20T20:59:47.703Z,1.13
2023-08-20T21:02:14.268Z,1.45
2023-08-20T21:04:40.939Z,1.52
2023-08-20T21:07:07.638Z,1.63
2023-08-20T21:09:34.254Z,1.30
2023-08-20T21:12:00.930Z,1.42
2023-08-20T21:14:27.494Z,1.35
2023-08-20T21:16:54.121Z,1.55
2023-08-20T21:19:20.640Z,1.35
2023-08-20T21:21:47.148Z,1.33
2023-08-20T21:24:13.690Z,1.20
2023-08-20T21:26:40.294Z,1.20
2023-08-20T21:29:07.908Z,1.30
2023-08-20T21:31:34.391Z,1.60
2023-08-20T21:34:00.996Z,1.58
2023-08-20T21:36:27.502Z,1.38
2023-08-20T21:38:54.039Z,1.27
2023-08-20T21:41:20.630Z,1.33
2023-08-20T21:43:48.995Z,1.75
2023-08-20T21:46:16.337Z,1.70
2023-08-20T21:48:43.292Z,1.10
2023-08-20T21:51:11.064Z,1.60
2023-08-20T21:53:38.075Z,1.70
2023-08-20T21:56:04.771Z,1.92
2023-08-20T21:58:31.341Z,1.67
2023-08-20T22:00:59.748Z,1.83
2023-08-20T22:03:26.434Z,1.83
2023-08-20T22:05:53.023Z,2.13
2023-08-20T22:08:19.574Z,2.25
2023-08-20T22:10:46.269Z,1.90
2023-08-20T22:13:15.133Z,1.38
2023-08-20T22:15:42.152Z,2.08
2023-08-20T22:18:08.731Z,1.88
2023-08-20T22:20:35.299Z,1.65
2023-08-20T22:23:01.827Z,1.83
2023-08-20T22:25:28.391Z,2.00
2023-08-20T22:27:55.565Z,1.80
2023-08-20T22:30:23.481Z,2.28
2023-08-20T22:32:50.224Z,2.00
2023-08-20T22:35:16.897Z,1.95
2023-08-20T22:38:01.493Z,2.45
2023-08-20T22:40:27.976Z,2.53
2023-08-20T22:42:54.533Z,1.90
2023-08-20T22:45:21.104Z,2.30
2023-08-20T22:47:47.975Z,2.17
2023-08-20T22:50:14.578Z,2.20
2023-08-20T22:52:41.120Z,2.53
2023-08-20T22:55:11.336Z,2.15
2023-08-20T22:57:37.899Z,2.28
2023-08-20T23:00:08.797Z,2.53
2023-08-20T23:02:36.675Z,1.90
2023-08-20T23:05:03.831Z,1.85
2023-08-20T23:07:30.311Z,2.20
2023-08-20T23:09:57.436Z,2.00
2023-08-20T23:12:24.611Z,2.75
2023-08-20T23:14:52.787Z,2.25
2023-08-20T23:17:20.290Z,1.85
2023-08-20T23:19:50.129Z,1.92
2023-08-20T23:22:18.534Z,2.17
2023-08-20T23:27:12.146Z,1.73
2023-08-20T23:29:38.709Z,1.30
2023-08-20T23:32:05.733Z,1.95
2023-08-20T23:34:32.570Z,2.08
2023-08-20T23:36:59.242Z,1.95
2023-08-20T23:39:25.862Z,2.05
2023-08-20T23:41:52.390Z,2.17
2023-08-20T23:44:19.076Z,1.98
2023-08-20T23:46:48.550Z,1.65
2023-08-20T23:49:15.654Z,2.10
2023-08-20T23:51:42.255Z,2.03
2023-08-20T23:54:09.676Z,2.10
2023-08-20T23:56:36.485Z,1.85
2023-08-20T23:59:03.153Z,2.00
